sensor_id;sensor_type;location;lat;lon;timestamp;P1;durP1;ratioP1;P2;durP2;ratioP2
13807;SDS011;40769;51.512;5.494;2023-10-08T00:01:34;4.90;;;3.83;;
13807;SDS011;40769;51.512;5.494;2023-10-08T00:04:00;4.47;;;3.65;;
13807;SDS011;40769;51.512;5.494;2023-10-08T00:06:29;4.13;;;3.63;;
13807;SDS011;40769;51.512;5.494;2023-10-08T00:08:55;4.80;;;3.30;;
13807;SDS011;40769;51.512;5.494;2023-10-08T00:11:25;4.07;;;3.25;;
13807;SDS011;40769;51.512;5.494;2023-10-08T00:13:54;4.93;;;3.72;;
13807;SDS011;40769;51.512;5.494;2023-10-08T00:16:21;4.82;;;3.63;;
13807;SDS011;40769;51.512;5.494;2023-10-08T00:18:47;5.95;;;3.53;;
13807;SDS011;40769;51.512;5.494;2023-10-08T00:21:16;4.47;;;3.75;;
13807;SDS011;40769;51.512;5.494;2023-10-08T00:23:52;4.05;;;3.50;;
13807;SDS011;40769;51.512;5.494;2023-10-08T00:26:25;6.32;;;3.70;;
13807;SDS011;40769;51.512;5.494;2023-10-08T00:28:57;4.57;;;3.30;;
13807;SDS011;40769;51.512;5.494;2023-10-08T00:31:24;5.57;;;3.65;;
13807;SDS011;40769;51.512;5.494;2023-10-08T00:33:55;4.05;;;3.42;;
13807;SDS011;40769;51.512;5.494;2023-10-08T00:36:21;6.00;;;3.83;;
13807;SDS011;40769;51.512;5.494;2023-10-08T00:38:49;4.53;;;3.60;;
13807;SDS011;40769;51.512;5.494;2023-10-08T00:41:18;4.60;;;3.83;;
13807;SDS011;40769;51.512;5.494;2023-10-08T00:43:47;7.13;;;4.53;;
13807;SDS011;40769;51.512;5.494;2023-10-08T00:46:13;5.18;;;4.68;;
13807;SDS011;40769;51.512;5.494;2023-10-08T00:48:45;4.93;;;3.83;;
13807;SDS011;40769;51.512;5.494;2023-10-08T00:51:11;5.68;;;4.90;;
13807;SDS011;40769;51.512;5.494;2023-10-08T00:53:55;5.53;;;4.70;;
13807;SDS011;40769;51.512;5.494;2023-10-08T00:56:36;5.00;;;4.50;;
13807;SDS011;40769;51.512;5.494;2023-10-08T00:59:11;5.03;;;4.45;;
13807;SDS011;40769;51.512;5.494;2023-10-08T01:01:41;4.93;;;4.30;;
13807;SDS011;40769;51.512;5.494;2023-10-08T01:04:24;4.78;;;4.22;;
13807;SDS011;40769;51.512;5.494;2023-10-08T01:07:00;5.18;;;4.47;;
13807;SDS011;40769;51.512;5.494;2023-10-08T01:09:40;4.68;;;4.18;;
13807;SDS011;40769;51.512;5.494;2023-10-08T01:12:16;4.40;;;3.88;;
13807;SDS011;40769;51.512;5.494;2023-10-08T01:14:49;4.80;;;4.10;;
13807;SDS011;40769;51.512;5.494;2023-10-08T01:17:18;5.13;;;4.63;;
13807;SDS011;40769;51.512;5.494;2023-10-08T01:19:49;6.32;;;5.32;;
13807;SDS011;40769;51.512;5.494;2023-10-08T01:22:25;5.78;;;4.75;;
13807;SDS011;40769;51.512;5.494;2023-10-08T01:24:54;6.35;;;4.97;;
13807;SDS011;40769;51.512;5.494;2023-10-08T01:27:20;6.20;;;5.03;;
13807;SDS011;40769;51.512;5.494;2023-10-08T01:29:53;4.80;;;4.30;;
13807;SDS011;40769;51.512;5.494;2023-10-08T01:32:19;6.00;;;5.15;;
13807;SDS011;40769;51.512;5.494;2023-10-08T01:34:48;6.32;;;5.45;;
13807;SDS011;40769;51.512;5.494;2023-10-08T01:37:15;5.28;;;4.75;;
13807;SDS011;40769;51.512;5.494;2023-10-08T01:39:44;6.97;;;5.13;;
13807;SDS011;40769;51.512;5.494;2023-10-08T01:42:11;6.22;;;4.32;;
13807;SDS011;40769;51.512;5.494;2023-10-08T01:44:49;5.70;;;4.57;;
13807;SDS011;40769;51.512;5.494;2023-10-08T01:47:16;5.10;;;4.30;;
13807;SDS011;40769;51.512;5.494;2023-10-08T01:49:42;5.05;;;4.55;;
13807;SDS011;40769;51.512;5.494;2023-10-08T01:52:10;4.85;;;3.83;;
13807;SDS011;40769;51.512;5.494;2023-10-08T01:55:01;5.57;;;4.45;;
13807;SDS011;40769;51.512;5.494;2023-10-08T01:57:28;5.00;;;4.53;;
13807;SDS011;40769;51.512;5.494;2023-10-08T01:59:53;5.72;;;4.90;;
13807;SDS011;40769;51.512;5.494;2023-10-08T02:02:19;5.65;;;5.15;;
13807;SDS011;40769;51.512;5.494;2023-10-08T02:04:45;7.10;;;5.55;;
13807;SDS011;40769;51.512;5.494;2023-10-08T02:07:10;6.53;;;5.50;;
13807;SDS011;40769;51.512;5.494;2023-10-08T02:09:39;6.88;;;5.70;;
13807;SDS011;40769;51.512;5.494;2023-10-08T02:12:05;6.50;;;5.18;;
13807;SDS011;40769;51.512;5.494;2023-10-08T02:14:31;5.22;;;4.72;;
13807;SDS011;40769;51.512;5.494;2023-10-08T02:17:00;6.05;;;5.28;;
13807;SDS011;40769;51.512;5.494;2023-10-08T02:19:31;5.13;;;4.63;;
13807;SDS011;40769;51.512;5.494;2023-10-08T02:21:57;7.70;;;5.35;;
13807;SDS011;40769;51.512;5.494;2023-10-08T02:24:23;6.28;;;5.68;;
13807;SDS011;40769;51.512;5.494;2023-10-08T02:26:50;6.25;;;5.38;;
13807;SDS011;40769;51.512;5.494;2023-10-08T02:29:17;6.78;;;6.18;;
13807;SDS011;40769;51.512;5.494;2023-10-08T02:31:42;6.78;;;6.10;;
13807;SDS011;40769;51.512;5.494;2023-10-08T02:34:08;7.15;;;6.45;;
13807;SDS011;40769;51.512;5.494;2023-10-08T02:36:38;7.00;;;6.00;;
13807;SDS011;40769;51.512;5.494;2023-10-08T02:39:07;6.43;;;5.82;;
13807;SDS011;40769;51.512;5.494;2023-10-08T02:41:43;6.47;;;5.88;;
13807;SDS011;40769;51.512;5.494;2023-10-08T02:44:18;7.00;;;5.65;;
13807;SDS011;40769;51.512;5.494;2023-10-08T02:46:47;6.03;;;5.43;;
13807;SDS011;40769;51.512;5.494;2023-10-08T02:49:14;6.10;;;5.50;;
13807;SDS011;40769;51.512;5.494;2023-10-08T02:51:48;6.55;;;5.13;;
13807;SDS011;40769;51.512;5.494;2023-10-08T02:54:20;5.18;;;4.68;;
13807;SDS011;40769;51.512;5.494;2023-10-08T02:56:56;5.65;;;4.68;;
13807;SDS011;40769;51.512;5.494;2023-10-08T02:59:28;6.65;;;4.65;;
13807;SDS011;40769;51.512;5.494;2023-10-08T03:02:05;6.47;;;4.63;;
13807;SDS011;40769;51.512;5.494;2023-10-08T03:04:49;6.60;;;4.63;;
13807;SDS011;40769;51.512;5.494;2023-10-08T03:07:17;5.95;;;4.18;;
13807;SDS011;40769;51.512;5.494;2023-10-08T03:09:50;4.40;;;3.53;;
13807;SDS011;40769;51.512;5.494;2023-10-08T03:12:28;5.30;;;3.78;;
13807;SDS011;40769;51.512;5.494;2023-10-08T03:14:57;4.63;;;3.72;;
13807;SDS011;40769;51.512;5.494;2023-10-08T03:17:29;6.20;;;4.78;;
13807;SDS011;40769;51.512;5.494;2023-10-08T03:19:55;6.10;;;4.25;;
13807;SDS011;40769;51.512;5.494;2023-10-08T03:22:47;6.13;;;4.82;;
13807;SDS011;40769;51.512;5.494;2023-10-08T03:25:14;5.30;;;4.60;;
13807;SDS011;40769;51.512;5.494;2023-10-08T03:27:45;3.80;;;3.20;;
13807;SDS011;40769;51.512;5.494;2023-10-08T03:30:13;5.10;;;4.22;;
13807;SDS011;40769;51.512;5.494;2023-10-08T03:32:43;6.22;;;4.50;;
13807;SDS011;40769;51.512;5.494;2023-10-08T03:35:20;4.90;;;4.10;;
13807;SDS011;40769;51.512;5.494;2023-10-08T03:37:53;6.43;;;5.07;;
13807;SDS011;40769;51.512;5.494;2023-10-08T03:40:19;6.32;;;5.75;;
13807;SDS011;40769;51.512;5.494;2023-10-08T03:42:48;6.75;;;5.90;;
13807;SDS011;40769;51.512;5.494;2023-10-08T03:45:14;6.22;;;5.10;;
13807;SDS011;40769;51.512;5.494;2023-10-08T03:47:47;8.90;;;5.18;;
13807;SDS011;40769;51.512;5.494;2023-10-08T03:50:28;4.78;;;3.95;;
13807;SDS011;40769;51.512;5.494;2023-10-08T03:53:06;5.82;;;4.88;;
13807;SDS011;40769;51.512;5.494;2023-10-08T03:55:37;5.53;;;4.88;;
13807;SDS011;40769;51.512;5.494;2023-10-08T03:58:06;6.47;;;5.20;;
13807;SDS011;40769;51.512;5.494;2023-10-08T04:00:36;6.47;;;4.90;;
13807;SDS011;40769;51.512;5.494;2023-10-08T04:03:06;6.22;;;4.80;;
13807;SDS011;40769;51.512;5.494;2023-10-08T04:05:36;6.45;;;4.68;;
13807;SDS011;40769;51.512;5.494;2023-10-08T04:08:21;6.85;;;5.28;;
13807;SDS011;40769;51.512;5.494;2023-10-08T04:10:59;7.57;;;4.63;;
13807;SDS011;40769;51.512;5.494;2023-10-08T04:13:38;4.90;;;4.40;;
13807;SDS011;40769;51.512;5.494;2023-10-08T04:16:09;6.15;;;4.57;;
13807;SDS011;40769;51.512;5.494;2023-10-08T04:18:35;8.27;;;5.03;;
13807;SDS011;40769;51.512;5.494;2023-10-08T04:21:05;5.65;;;4.88;;
13807;SDS011;40769;51.512;5.494;2023-10-08T04:23:37;6.70;;;4.78;;
13807;SDS011;40769;51.512;5.494;2023-10-08T04:26:04;8.48;;;5.05;;
13807;SDS011;40769;51.512;5.494;2023-10-08T04:28:34;8.27;;;6.25;;
13807;SDS011;40769;51.512;5.494;2023-10-08T04:31:00;6.47;;;5.38;;
13807;SDS011;40769;51.512;5.494;2023-10-08T04:33:40;5.18;;;4.68;;
13807;SDS011;40769;51.512;5.494;2023-10-08T04:36:09;6.80;;;5.53;;
13807;SDS011;40769;51.512;5.494;2023-10-08T04:38:42;6.90;;;6.07;;
13807;SDS011;40769;51.512;5.494;2023-10-08T04:41:10;6.72;;;6.00;;
13807;SDS011;40769;51.512;5.494;2023-10-08T04:43:37;5.57;;;5.07;;
13807;SDS011;40769;51.512;5.494;2023-10-08T04:46:08;5.47;;;4.97;;
13807;SDS011;40769;51.512;5.494;2023-10-08T04:48:52;4.43;;;3.97;;
13807;SDS011;40769;51.512;5.494;2023-10-08T04:51:18;4.63;;;3.60;;
13807;SDS011;40769;51.512;5.494;2023-10-08T04:53:47;4.28;;;3.42;;
13807;SDS011;40769;51.512;5.494;2023-10-08T04:56:14;5.95;;;4.10;;
13807;SDS011;40769;51.512;5.494;2023-10-08T04:58:47;3.90;;;3.45;;
13807;SDS011;40769;51.512;5.494;2023-10-08T05:01:13;5.13;;;3.55;;
13807;SDS011;40769;51.512;5.494;2023-10-08T05:03:51;4.28;;;3.63;;
13807;SDS011;40769;51.512;5.494;2023-10-08T05:06:23;5.90;;;4.63;;
13807;SDS011;40769;51.512;5.494;2023-10-08T05:09:02;5.72;;;4.47;;
13807;SDS011;40769;51.512;5.494;2023-10-08T05:11:38;5.55;;;4.05;;
13807;SDS011;40769;51.512;5.494;2023-10-08T05:14:30;2.60;;;2.40;;
13807;SDS011;40769;51.512;5.494;2023-10-08T05:19:43;4.35;;;3.22;;
13807;SDS011;40769;51.512;5.494;2023-10-08T05:22:27;6.82;;;4.07;;
13807;SDS011;40769;51.512;5.494;2023-10-08T05:24:53;4.07;;;3.45;;
13807;SDS011;40769;51.512;5.494;2023-10-08T05:27:38;4.78;;;4.25;;
13807;SDS011;40769;51.512;5.494;2023-10-08T05:32:40;5.22;;;4.72;;
13807;SDS011;40769;51.512;5.494;2023-10-08T05:35:29;5.63;;;4.70;;
13807;SDS011;40769;51.512;5.494;2023-10-08T05:38:07;4.93;;;4.43;;
13807;SDS011;40769;51.512;5.494;2023-10-08T05:40:53;6.20;;;5.22;;
13807;SDS011;40769;51.512;5.494;2023-10-08T05:43:26;5.50;;;4.38;;
13807;SDS011;40769;51.512;5.494;2023-10-08T05:46:05;4.68;;;4.05;;
13807;SDS011;40769;51.512;5.494;2023-10-08T05:49:05;4.80;;;3.65;;
13807;SDS011;40769;51.512;5.494;2023-10-08T05:51:30;5.95;;;5.20;;
13807;SDS011;40769;51.512;5.494;2023-10-08T05:54:13;4.75;;;4.35;;
13807;SDS011;40769;51.512;5.494;2023-10-08T05:56:55;6.15;;;5.07;;
13807;SDS011;40769;51.512;5.494;2023-10-08T05:59:35;4.45;;;4.05;;
13807;SDS011;40769;51.512;5.494;2023-10-08T06:04:52;3.75;;;3.35;;
13807;SDS011;40769;51.512;5.494;2023-10-08T06:07:35;5.18;;;3.83;;
13807;SDS011;40769;51.512;5.494;2023-10-08T06:10:16;4.07;;;3.08;;
13807;SDS011;40769;51.512;5.494;2023-10-08T06:13:03;3.53;;;3.08;;
13807;SDS011;40769;51.512;5.494;2023-10-08T06:15:55;4.18;;;3.15;;
13807;SDS011;40769;51.512;5.494;2023-10-08T06:18:23;3.78;;;3.38;;
13807;SDS011;40769;51.512;5.494;2023-10-08T06:23:20;5.68;;;2.88;;
13807;SDS011;40769;51.512;5.494;2023-10-08T06:25:48;3.58;;;3.25;;
13807;SDS011;40769;51.512;5.494;2023-10-08T06:28:22;4.35;;;3.28;;
13807;SDS011;40769;51.512;5.494;2023-10-08T06:30:51;3.40;;;3.10;;
13807;SDS011;40769;51.512;5.494;2023-10-08T06:33:22;4.28;;;3.00;;
13807;SDS011;40769;51.512;5.494;2023-10-08T06:35:55;3.63;;;2.92;;
13807;SDS011;40769;51.512;5.494;2023-10-08T06:38:28;3.42;;;3.10;;
13807;SDS011;40769;51.512;5.494;2023-10-08T06:40:57;6.00;;;4.40;;
13807;SDS011;40769;51.512;5.494;2023-10-08T06:43:31;4.78;;;3.83;;
13807;SDS011;40769;51.512;5.494;2023-10-08T06:45:59;3.88;;;3.30;;
13807;SDS011;40769;51.512;5.494;2023-10-08T06:48:25;4.35;;;3.90;;
13807;SDS011;40769;51.512;5.494;2023-10-08T06:50:54;5.63;;;4.45;;
13807;SDS011;40769;51.512;5.494;2023-10-08T06:53:22;7.03;;;4.50;;
13807;SDS011;40769;51.512;5.494;2023-10-08T06:55:48;4.88;;;3.97;;
13807;SDS011;40769;51.512;5.494;2023-10-08T06:58:21;5.15;;;4.00;;
13807;SDS011;40769;51.512;5.494;2023-10-08T07:00:48;4.93;;;3.40;;
13807;SDS011;40769;51.512;5.494;2023-10-08T07:03:14;4.22;;;3.83;;
13807;SDS011;40769;51.512;5.494;2023-10-08T07:05:43;4.88;;;3.92;;
13807;SDS011;40769;51.512;5.494;2023-10-08T07:08:27;6.20;;;5.53;;
13807;SDS011;40769;51.512;5.494;2023-10-08T07:10:57;5.07;;;4.57;;
13807;SDS011;40769;51.512;5.494;2023-10-08T07:13:25;5.22;;;4.72;;
13807;SDS011;40769;51.512;5.494;2023-10-08T07:15:54;4.88;;;4.35;;
13807;SDS011;40769;51.512;5.494;2023-10-08T07:18:21;4.30;;;3.90;;
13807;SDS011;40769;51.512;5.494;2023-10-08T07:20:50;4.95;;;3.63;;
13807;SDS011;40769;51.512;5.494;2023-10-08T07:23:23;3.80;;;3.40;;
13807;SDS011;40769;51.512;5.494;2023-10-08T07:26:03;5.63;;;4.43;;
13807;SDS011;40769;51.512;5.494;2023-10-08T07:28:43;4.15;;;3.45;;
13807;SDS011;40769;51.512;5.494;2023-10-08T07:31:14;5.35;;;3.90;;
13807;SDS011;40769;51.512;5.494;2023-10-08T07:33:56;4.75;;;3.83;;
13807;SDS011;40769;51.512;5.494;2023-10-08T07:36:25;6.85;;;5.05;;
13807;SDS011;40769;51.512;5.494;2023-10-08T07:38:51;6.53;;;4.65;;
13807;SDS011;40769;51.512;5.494;2023-10-08T07:41:18;6.70;;;4.78;;
13807;SDS011;40769;51.512;5.494;2023-10-08T07:43:48;5.05;;;4.13;;
13807;SDS011;40769;51.512;5.494;2023-10-08T07:46:21;5.90;;;5.15;;
13807;SDS011;40769;51.512;5.494;2023-10-08T07:48:47;7.00;;;4.90;;
13807;SDS011;40769;51.512;5.494;2023-10-08T07:51:15;8.57;;;4.10;;
13807;SDS011;40769;51.512;5.494;2023-10-08T07:53:42;4.97;;;4.22;;
13807;SDS011;40769;51.512;5.494;2023-10-08T07:56:08;6.00;;;4.45;;
13807;SDS011;40769;51.512;5.494;2023-10-08T07:58:36;6.35;;;4.68;;
13807;SDS011;40769;51.512;5.494;2023-10-08T08:01:02;5.35;;;4.70;;
13807;SDS011;40769;51.512;5.494;2023-10-08T08:03:31;7.30;;;5.30;;
13807;SDS011;40769;51.512;5.494;2023-10-08T08:06:01;5.60;;;4.65;;
13807;SDS011;40769;51.512;5.494;2023-10-08T08:08:31;5.30;;;4.43;;
13807;SDS011;40769;51.512;5.494;2023-10-08T08:10:58;4.13;;;3.60;;
13807;SDS011;40769;51.512;5.494;2023-10-08T08:13:29;11.18;;;5.93;;
13807;SDS011;40769;51.512;5.494;2023-10-08T08:15:55;6.00;;;4.50;;
13807;SDS011;40769;51.512;5.494;2023-10-08T08:18:26;5.13;;;4.63;;
13807;SDS011;40769;51.512;5.494;2023-10-08T08:20:57;6.85;;;5.80;;
13807;SDS011;40769;51.512;5.494;2023-10-08T08:23:27;6.25;;;5.10;;
13807;SDS011;40769;51.512;5.494;2023-10-08T08:25:54;8.02;;;5.93;;
13807;SDS011;40769;51.512;5.494;2023-10-08T08:28:36;8.45;;;6.38;;
13807;SDS011;40769;51.512;5.494;2023-10-08T08:31:03;6.13;;;5.47;;
13807;SDS011;40769;51.512;5.494;2023-10-08T08:33:30;5.38;;;4.88;;
13807;SDS011;40769;51.512;5.494;2023-10-08T08:36:16;5.28;;;4.78;;
13807;SDS011;40769;51.512;5.494;2023-10-08T08:38:42;6.55;;;5.60;;
13807;SDS011;40769;51.512;5.494;2023-10-08T08:41:08;6.97;;;6.20;;
13807;SDS011;40769;51.512;5.494;2023-10-08T08:43:37;7.13;;;5.82;;
13807;SDS011;40769;51.512;5.494;2023-10-08T08:46:09;7.60;;;6.55;;
13807;SDS011;40769;51.512;5.494;2023-10-08T08:48:41;7.07;;;5.53;;
13807;SDS011;40769;51.512;5.494;2023-10-08T08:51:13;7.78;;;6.07;;
13807;SDS011;40769;51.512;5.494;2023-10-08T08:53:39;8.43;;;5.55;;
13807;SDS011;40769;51.512;5.494;2023-10-08T08:56:06;12.98;;;6.95;;
13807;SDS011;40769;51.512;5.494;2023-10-08T08:58:34;9.15;;;6.03;;
13807;SDS011;40769;51.512;5.494;2023-10-08T09:01:00;6.00;;;5.22;;
13807;SDS011;40769;51.512;5.494;2023-10-08T09:03:29;6.43;;;4.80;;
13807;SDS011;40769;51.512;5.494;2023-10-08T09:05:57;8.30;;;5.43;;
13807;SDS011;40769;51.512;5.494;2023-10-08T09:08:27;8.25;;;5.78;;
13807;SDS011;40769;51.512;5.494;2023-10-08T09:10:59;11.35;;;6.22;;
13807;SDS011;40769;51.512;5.494;2023-10-08T09:13:33;6.85;;;5.22;;
13807;SDS011;40769;51.512;5.494;2023-10-08T09:18:41;7.95;;;5.32;;
13807;SDS011;40769;51.512;5.494;2023-10-08T09:21:13;7.47;;;5.55;;
13807;SDS011;40769;51.512;5.494;2023-10-08T09:23:40;9.88;;;7.07;;
13807;SDS011;40769;51.512;5.494;2023-10-08T09:26:12;8.40;;;6.32;;
13807;SDS011;40769;51.512;5.494;2023-10-08T09:28:45;6.43;;;5.13;;
13807;SDS011;40769;51.512;5.494;2023-10-08T09:31:14;7.57;;;6.00;;
13807;SDS011;40769;51.512;5.494;2023-10-08T09:33:42;8.15;;;5.80;;
13807;SDS011;40769;51.512;5.494;2023-10-08T09:36:18;8.90;;;5.72;;
13807;SDS011;40769;51.512;5.494;2023-10-08T09:38:45;11.43;;;6.13;;
13807;SDS011;40769;51.512;5.494;2023-10-08T09:41:14;9.52;;;7.18;;
13807;SDS011;40769;51.512;5.494;2023-10-08T09:43:43;6.25;;;5.30;;
13807;SDS011;40769;51.512;5.494;2023-10-08T09:48:47;9.25;;;6.63;;
13807;SDS011;40769;51.512;5.494;2023-10-08T09:51:16;8.05;;;6.40;;
13807;SDS011;40769;51.512;5.494;2023-10-08T09:53:47;10.48;;;7.15;;
13807;SDS011;40769;51.512;5.494;2023-10-08T09:56:13;14.27;;;8.75;;
13807;SDS011;40769;51.512;5.494;2023-10-08T09:58:41;12.15;;;7.68;;
13807;SDS011;40769;51.512;5.494;2023-10-08T10:01:08;11.18;;;7.43;;
13807;SDS011;40769;51.512;5.494;2023-10-08T10:03:34;9.25;;;7.20;;
13807;SDS011;40769;51.512;5.494;2023-10-08T10:06:01;11.07;;;7.90;;
13807;SDS011;40769;51.512;5.494;2023-10-08T10:08:27;12.23;;;7.22;;
13807;SDS011;40769;51.512;5.494;2023-10-08T10:11:00;10.35;;;7.40;;
13807;SDS011;40769;51.512;5.494;2023-10-08T10:13:34;12.10;;;7.97;;
13807;SDS011;40769;51.512;5.494;2023-10-08T10:16:04;9.55;;;6.75;;
13807;SDS011;40769;51.512;5.494;2023-10-08T10:18:33;12.32;;;7.28;;
13807;SDS011;40769;51.512;5.494;2023-10-08T10:21:00;11.63;;;7.47;;
13807;SDS011;40769;51.512;5.494;2023-10-08T10:23:56;11.32;;;7.93;;
13807;SDS011;40769;51.512;5.494;2023-10-08T10:26:32;12.75;;;7.00;;
13807;SDS011;40769;51.512;5.494;2023-10-08T10:31:40;9.15;;;6.25;;
13807;SDS011;40769;51.512;5.494;2023-10-08T10:34:12;8.45;;;4.63;;
13807;SDS011;40769;51.512;5.494;2023-10-08T10:36:41;8.02;;;4.75;;
13807;SDS011;40769;51.512;5.494;2023-10-08T10:39:11;12.57;;;7.50;;
13807;SDS011;40769;51.512;5.494;2023-10-08T10:42:04;9.88;;;5.20;;
13807;SDS011;40769;51.512;5.494;2023-10-08T10:44:31;10.35;;;6.82;;
13807;SDS011;40769;51.512;5.494;2023-10-08T10:47:01;13.00;;;6.95;;
13807;SDS011;40769;51.512;5.494;2023-10-08T10:49:40;8.85;;;6.80;;
13807;SDS011;40769;51.512;5.494;2023-10-08T10:52:24;12.00;;;5.60;;
13807;SDS011;40769;51.512;5.494;2023-10-08T10:54:59;6.97;;;6.28;;
13807;SDS011;40769;51.512;5.494;2023-10-08T10:57:41;10.45;;;7.35;;
13807;SDS011;40769;51.512;5.494;2023-10-08T11:00:08;10.60;;;6.88;;
13807;SDS011;40769;51.512;5.494;2023-10-08T11:03:01;5.32;;;4.78;;
13807;SDS011;40769;51.512;5.494;2023-10-08T11:05:32;6.65;;;5.47;;
13807;SDS011;40769;51.512;5.494;2023-10-08T11:08:02;7.53;;;6.55;;
13807;SDS011;40769;51.512;5.494;2023-10-08T11:10:31;6.90;;;6.20;;
13807;SDS011;40769;51.512;5.494;2023-10-08T11:12:58;5.80;;;5.20;;
13807;SDS011;40769;51.512;5.494;2023-10-08T11:15:29;8.27;;;7.18;;
13807;SDS011;40769;51.512;5.494;2023-10-08T11:18:09;5.85;;;5.25;;
13807;SDS011;40769;51.512;5.494;2023-10-08T11:20:35;6.72;;;6.07;;
13807;SDS011;40769;51.512;5.494;2023-10-08T11:23:05;7.38;;;5.90;;
13807;SDS011;40769;51.512;5.494;2023-10-08T11:25:56;6.90;;;6.20;;
13807;SDS011;40769;51.512;5.494;2023-10-08T11:28:30;7.32;;;5.82;;
13807;SDS011;40769;51.512;5.494;2023-10-08T11:31:06;6.28;;;5.60;;
13807;SDS011;40769;51.512;5.494;2023-10-08T11:33:38;9.82;;;6.28;;
13807;SDS011;40769;51.512;5.494;2023-10-08T11:36:06;8.35;;;7.45;;
13807;SDS011;40769;51.512;5.494;2023-10-08T11:38:43;8.27;;;6.32;;
13807;SDS011;40769;51.512;5.494;2023-10-08T11:41:15;7.63;;;6.82;;
13807;SDS011;40769;51.512;5.494;2023-10-08T11:43:48;7.55;;;6.18;;
13807;SDS011;40769;51.512;5.494;2023-10-08T11:46:24;7.75;;;5.68;;
13807;SDS011;40769;51.512;5.494;2023-10-08T11:49:04;6.20;;;5.10;;
13807;SDS011;40769;51.512;5.494;2023-10-08T11:51:33;6.63;;;5.75;;
13807;SDS011;40769;51.512;5.494;2023-10-08T11:54:00;5.80;;;5.00;;
13807;SDS011;40769;51.512;5.494;2023-10-08T11:56:28;6.18;;;5.15;;
13807;SDS011;40769;51.512;5.494;2023-10-08T11:58:54;5.78;;;5.15;;
13807;SDS011;40769;51.512;5.494;2023-10-08T12:01:22;6.05;;;5.45;;
13807;SDS011;40769;51.512;5.494;2023-10-08T12:03:52;5.63;;;5.07;;
13807;SDS011;40769;51.512;5.494;2023-10-08T12:06:18;7.88;;;6.00;;
13807;SDS011;40769;51.512;5.494;2023-10-08T12:08:45;6.80;;;5.35;;
13807;SDS011;40769;51.512;5.494;2023-10-08T12:11:14;5.82;;;4.57;;
13807;SDS011;40769;51.512;5.494;2023-10-08T12:13:41;6.55;;;5.32;;
13807;SDS011;40769;51.512;5.494;2023-10-08T12:19:31;6.28;;;4.93;;
13807;SDS011;40769;51.512;5.494;2023-10-08T12:21:57;6.85;;;5.30;;
13807;SDS011;40769;51.512;5.494;2023-10-08T12:24:23;8.25;;;6.40;;
13807;SDS011;40769;51.512;5.494;2023-10-08T12:26:48;8.52;;;5.88;;
13807;SDS011;40769;51.512;5.494;2023-10-08T12:29:14;6.68;;;5.97;;
13807;SDS011;40769;51.512;5.494;2023-10-08T12:31:42;5.63;;;5.13;;
13807;SDS011;40769;51.512;5.494;2023-10-08T12:34:12;8.07;;;6.70;;
13807;SDS011;40769;51.512;5.494;2023-10-08T12:36:38;6.82;;;6.05;;
13807;SDS011;40769;51.512;5.494;2023-10-08T12:39:04;7.85;;;6.72;;
13807;SDS011;40769;51.512;5.494;2023-10-08T12:41:53;7.75;;;6.32;;
13807;SDS011;40769;51.512;5.494;2023-10-08T12:44:19;5.55;;;4.25;;
13807;SDS011;40769;51.512;5.494;2023-10-08T12:46:44;7.57;;;6.07;;
13807;SDS011;40769;51.512;5.494;2023-10-08T12:49:13;8.80;;;6.80;;
13807;SDS011;40769;51.512;5.494;2023-10-08T12:51:48;8.40;;;7.03;;
13807;SDS011;40769;51.512;5.494;2023-10-08T12:54:44;9.98;;;7.38;;
13807;SDS011;40769;51.512;5.494;2023-10-08T12:57:10;7.03;;;6.32;;
13807;SDS011;40769;51.512;5.494;2023-10-08T12:59:35;10.40;;;7.68;;
13807;SDS011;40769;51.512;5.494;2023-10-08T13:02:03;9.90;;;8.27;;
13807;SDS011;40769;51.512;5.494;2023-10-08T13:04:33;10.38;;;7.78;;
13807;SDS011;40769;51.512;5.494;2023-10-08T13:07:00;11.60;;;9.35;;
13807;SDS011;40769;51.512;5.494;2023-10-08T13:09:27;10.38;;;9.15;;
13807;SDS011;40769;51.512;5.494;2023-10-08T13:11:56;8.93;;;8.02;;
13807;SDS011;40769;51.512;5.494;2023-10-08T13:14:24;7.72;;;6.97;;
13807;SDS011;40769;51.512;5.494;2023-10-08T13:16:50;9.98;;;8.30;;
13807;SDS011;40769;51.512;5.494;2023-10-08T13:19:18;11.15;;;8.52;;
13807;SDS011;40769;51.512;5.494;2023-10-08T13:21:44;8.52;;;7.63;;
13807;SDS011;40769;51.512;5.494;2023-10-08T13:24:10;8.73;;;7.15;;
13807;SDS011;40769;51.512;5.494;2023-10-08T13:26:36;9.90;;;8.57;;
13807;SDS011;40769;51.512;5.494;2023-10-08T13:29:03;11.95;;;8.70;;
13807;SDS011;40769;51.512;5.494;2023-10-08T13:31:30;10.75;;;8.65;;
13807;SDS011;40769;51.512;5.494;2023-10-08T13:34:01;8.60;;;7.55;;
13807;SDS011;40769;51.512;5.494;2023-10-08T13:36:28;8.45;;;7.35;;
13807;SDS011;40769;51.512;5.494;2023-10-08T13:38:54;9.75;;;8.75;;
13807;SDS011;40769;51.512;5.494;2023-10-08T13:41:20;9.85;;;8.85;;
13807;SDS011;40769;51.512;5.494;2023-10-08T13:43:50;10.52;;;9.20;;
13807;SDS011;40769;51.512;5.494;2023-10-08T13:46:27;11.82;;;9.38;;
13807;SDS011;40769;51.512;5.494;2023-10-08T13:48:52;11.85;;;9.07;;
13807;SDS011;40769;51.512;5.494;2023-10-08T13:51:21;9.73;;;8.70;;
13807;SDS011;40769;51.512;5.494;2023-10-08T13:53:51;10.88;;;9.77;;
13807;SDS011;40769;51.512;5.494;2023-10-08T13:56:26;9.75;;;7.82;;
13807;SDS011;40769;51.512;5.494;2023-10-08T13:58:55;11.02;;;8.93;;
13807;SDS011;40769;51.512;5.494;2023-10-08T14:01:29;10.65;;;9.55;;
13807;SDS011;40769;51.512;5.494;2023-10-08T14:04:03;8.30;;;7.28;;
13807;SDS011;40769;51.512;5.494;2023-10-08T14:06:34;12.80;;;9.70;;
13807;SDS011;40769;51.512;5.494;2023-10-08T14:09:02;10.40;;;8.50;;
13807;SDS011;40769;51.512;5.494;2023-10-08T14:11:33;9.95;;;8.23;;
13807;SDS011;40769;51.512;5.494;2023-10-08T14:13:58;7.95;;;6.75;;
13807;SDS011;40769;51.512;5.494;2023-10-08T14:16:27;11.68;;;9.88;;
13807;SDS011;40769;51.512;5.494;2023-10-08T14:18:57;10.60;;;9.48;;
13807;SDS011;40769;51.512;5.494;2023-10-08T14:21:24;12.15;;;9.35;;
13807;SDS011;40769;51.512;5.494;2023-10-08T14:23:58;10.70;;;9.45;;
13807;SDS011;40769;51.512;5.494;2023-10-08T14:26:28;8.75;;;7.85;;
13807;SDS011;40769;51.512;5.494;2023-10-08T14:29:01;10.27;;;8.75;;
13807;SDS011;40769;51.512;5.494;2023-10-08T14:31:33;11.25;;;9.60;;
13807;SDS011;40769;51.512;5.494;2023-10-08T14:34:04;9.15;;;8.05;;
13807;SDS011;40769;51.512;5.494;2023-10-08T14:36:31;9.93;;;8.40;;
13807;SDS011;40769;51.512;5.494;2023-10-08T14:39:16;6.78;;;6.10;;
13807;SDS011;40769;51.512;5.494;2023-10-08T14:42:15;11.18;;;8.65;;
13807;SDS011;40769;51.512;5.494;2023-10-08T14:45:00;11.10;;;9.23;;
13807;SDS011;40769;51.512;5.494;2023-10-08T14:47:26;10.55;;;9.32;;
13807;SDS011;40769;51.512;5.494;2023-10-08T14:49:51;11.70;;;9.05;;
13807;SDS011;40769;51.512;5.494;2023-10-08T14:52:17;9.93;;;8.00;;
13807;SDS011;40769;51.512;5.494;2023-10-08T14:54:43;9.32;;;8.18;;
13807;SDS011;40769;51.512;5.494;2023-10-08T14:57:10;9.75;;;7.95;;
13807;SDS011;40769;51.512;5.494;2023-10-08T14:59:39;11.40;;;8.70;;
13807;SDS011;40769;51.512;5.494;2023-10-08T15:02:06;10.13;;;8.65;;
13807;SDS011;40769;51.512;5.494;2023-10-08T15:04:35;9.68;;;7.45;;
13807;SDS011;40769;51.512;5.494;2023-10-08T15:07:04;9.40;;;7.05;;
13807;SDS011;40769;51.512;5.494;2023-10-08T15:09:43;8.05;;;7.20;;
13807;SDS011;40769;51.512;5.494;2023-10-08T15:12:09;7.93;;;5.72;;
13807;SDS011;40769;51.512;5.494;2023-10-08T15:14:35;6.20;;;5.35;;
13807;SDS011;40769;51.512;5.494;2023-10-08T15:17:03;10.43;;;8.13;;
13807;SDS011;40769;51.512;5.494;2023-10-08T15:19:30;8.23;;;5.10;;
13807;SDS011;40769;51.512;5.494;2023-10-08T15:21:56;10.40;;;7.68;;
13807;SDS011;40769;51.512;5.494;2023-10-08T15:24:23;7.50;;;6.38;;
13807;SDS011;40769;51.512;5.494;2023-10-08T15:26:52;7.35;;;5.32;;
13807;SDS011;40769;51.512;5.494;2023-10-08T15:29:19;9.80;;;6.65;;
13807;SDS011;40769;51.512;5.494;2023-10-08T15:31:47;11.75;;;7.55;;